Time;durP1;ratioP1;P1;durP2;ratioP2;P2;SDS_P1;SDS_P2;PMS_P1;PMS_P2;Temp;Humidity;BMP_temperature;BMP_pressure;BME280_temperature;BME280_humidity;BME280_pressure;Samples;Min_cycle;Max_cycle;Signal;HPM_P1;HPM_P2
2023/12/29 00:01:45;;;;;;;;;;;;;;;13.52;45.91;100849.81;5059810;28;19924;-88
2023/12/29 00:04:11;;;;;;;;;;;;;;;13.47;45.86;100847.94;5058055;28;20740;-87
2023/12/29 00:06:40;;;;;;;;;;;;;;;13.51;45.98;100840.13;5059542;28;19931;-88
2023/12/29 00:09:05;;;;;;;;;;;;;;;13.47;46.11;100847.13;5050662;28;19964;-86
2023/12/29 00:11:30;;;;;;;;;;;;;;;13.46;45.97;100835.53;5054739;28;20328;-89
2023/12/29 00:13:56;;;;;;;;;;;;;;;13.46;46.12;100840.91;5057812;28;19923;-89
2023/12/29 00:16:21;;;;;;;;;;;;;;;13.45;46.11;100850.06;5053029;28;20416;-87
2023/12/29 00:18:47;;;;;;;;;;;;;;;13.44;46.07;100840.38;5056264;28;19920;-85
2023/12/29 00:21:14;;;;;;;;;;;;;;;13.43;46.24;100836.06;5057318;28;19925;-88
2023/12/29 00:23:40;;;;;;;;;;;;;;;13.44;46.21;100834.97;5058210;28;19929;-87
2023/12/29 00:26:12;;;;;;;;;;;;;;;13.46;46.25;100829.31;5056913;28;20083;-90
2023/12/29 00:28:40;;;;;;;;;;;;;;;13.43;46.40;100827.16;5058109;28;19921;-90
2023/12/29 00:31:09;;;;;;;;;;;;;;;13.53;46.28;100824.53;5059168;28;19929;-86
2023/12/29 00:33:34;;;;;;;;;;;;;;;13.57;46.01;100814.84;5056620;28;21895;-89
2023/12/29 00:36:00;;;;;;;;;;;;;;;13.55;46.26;100804.34;5057749;28;19920;-90
2023/12/29 00:38:30;;;;;;;;;;;;;;;13.61;46.08;100803.25;5056650;28;20015;-87
2023/12/29 00:40:56;;;;;;;;;;;;;;;13.61;46.15;100813.22;5050249;28;19974;-85
2023/12/29 00:43:24;;;;;;;;;;;;;;;13.59;46.18;100802.72;5055877;28;19970;-89
2023/12/29 00:45:52;;;;;;;;;;;;;;;13.61;46.23;100805.94;5055509;28;19923;-88
2023/12/29 00:48:18;;;;;;;;;;;;;;;13.60;46.25;100798.94;5054206;28;19979;-89
2023/12/29 00:50:46;;;;;;;;;;;;;;;13.66;46.20;100796.28;5054943;28;19990;-89
2023/12/29 00:53:12;;;;;;;;;;;;;;;13.58;46.19;100786.84;5056520;28;20558;-86
2023/12/29 00:55:37;;;;;;;;;;;;;;;13.63;46.31;100778.75;5054403;28;19917;-90
2023/12/29 00:58:05;;;;;;;;;;;;;;;13.64;46.05;100785.75;5057822;28;19931;-89
2023/12/29 01:00:31;;;;;;;;;;;;;;;13.67;46.17;100776.38;5055954;28;19928;-87
2023/12/29 01:02:56;;;;;;;;;;;;;;;13.68;46.20;100775.28;5054735;28;19920;-88
2023/12/29 01:05:22;;;;;;;;;;;;;;;13.71;46.15;100764.78;5052439;28;19916;-88
2023/12/29 01:07:54;;;;;;;;;;;;;;;13.69;45.93;100768.81;5053398;28;19924;-89
2023/12/29 01:10:20;;;;;;;;;;;;;;;13.69;45.99;100758.06;5057775;28;19936;-87
2023/12/29 01:12:45;;;;;;;;;;;;;;;13.70;46.03;100755.09;5052138;28;19932;-86
2023/12/29 01:15:13;;;;;;;;;;;;;;;13.71;46.08;100761.28;5051514;28;19946;-86
2023/12/29 01:17:38;;;;;;;;;;;;;;;13.72;45.98;100752.94;5054409;28;19991;-88
2023/12/29 01:20:04;;;;;;;;;;;;;;;13.72;45.81;100760.22;5054087;28;20522;-87
2023/12/29 01:22:32;;;;;;;;;;;;;;;13.67;45.69;100744.06;5051473;28;19929;-85
2023/12/29 01:25:01;;;;;;;;;;;;;;;13.65;46.00;100754.28;5051067;28;19924;-86
2023/12/29 01:27:26;;;;;;;;;;;;;;;13.60;45.95;100738.91;5054295;28;20051;-85
2023/12/29 01:29:52;;;;;;;;;;;;;;;13.56;46.04;100733.28;5053246;28;20022;-89
2023/12/29 01:32:18;;;;;;;;;;;;;;;13.53;46.05;100749.97;5054594;28;19916;-86
2023/12/29 01:34:43;;;;;;;;;;;;;;;13.50;46.16;100744.31;5055316;28;20354;-85
2023/12/29 01:37:09;;;;;;;;;;;;;;;13.53;46.07;100749.97;5050714;28;19925;-84
2023/12/29 01:39:34;;;;;;;;;;;;;;;13.57;46.03;100740.25;5053589;28;20452;-90
2023/12/29 01:42:00;;;;;;;;;;;;;;;13.58;45.95;100733.81;5052665;28;19924;-87
2023/12/29 01:44:25;;;;;;;;;;;;;;;13.64;45.94;100733.78;5055790;28;19925;-89
2023/12/29 01:46:54;;;;;;;;;;;;;;;13.65;45.89;100727.38;5054698;28;20308;-89
2023/12/29 01:49:20;;;;;;;;;;;;;;;13.63;45.92;100733.00;5056108;28;19924;-86
2023/12/29 01:51:55;;;;;;;;;;;;;;;13.61;45.84;100730.56;5055670;28;19936;-87
2023/12/29 01:54:22;;;;;;;;;;;;;;;13.57;45.99;100723.31;5054341;28;19924;-87
2023/12/29 01:56:49;;;;;;;;;;;;;;;13.60;45.95;100723.56;5060273;28;20011;-88
2023/12/29 01:59:15;;;;;;;;;;;;;;;13.58;46.25;100725.72;5056914;28;19920;-91
2023/12/29 02:01:40;;;;;;;;;;;;;;;13.64;46.02;100717.66;5058066;28;19974;-87
2023/12/29 02:04:06;;;;;;;;;;;;;;;13.63;46.25;100713.34;5056509;28;19923;-86
2023/12/29 02:06:33;;;;;;;;;;;;;;;13.63;46.09;100705.25;5057490;28;19939;-86
2023/12/29 02:08:59;;;;;;;;;;;;;;;13.65;45.89;100713.91;5053134;28;20660;-89
2023/12/29 02:11:24;;;;;;;;;;;;;;;13.58;46.36;100701.50;5057625;28;20031;-87
2023/12/29 02:13:50;;;;;;;;;;;;;;;13.59;46.33;100683.47;5055774;28;19925;-87
2023/12/29 02:16:35;;;;;;;;;;;;;;;13.58;46.32;100677.28;5056736;28;19924;-84
2023/12/29 02:19:03;;;;;;;;;;;;;;;13.61;46.22;100682.13;5055379;28;19924;-88
2023/12/29 02:21:29;;;;;;;;;;;;;;;13.67;46.09;100695.59;5061362;28;20004;-87
2023/12/29 02:23:54;;;;;;;;;;;;;;;13.68;46.11;100689.13;5059740;28;20015;-86
2023/12/29 02:26:20;;;;;;;;;;;;;;;13.66;46.20;100678.63;5064119;28;19970;-86
2023/12/29 02:28:51;;;;;;;;;;;;;;;13.69;46.10;100666.50;5059091;28;19921;-86
2023/12/29 02:31:19;;;;;;;;;;;;;;;13.68;46.08;100670.28;5057346;28;19924;-89
2023/12/29 02:33:46;;;;;;;;;;;;;;;13.73;45.96;100662.19;5058067;28;19931;-89
2023/12/29 02:36:12;;;;;;;;;;;;;;;13.71;46.11;100672.44;5060634;28;19928;-88
2023/12/29 02:38:38;;;;;;;;;;;;;;;13.72;46.04;100677.53;5061970;28;19925;-90
2023/12/29 02:41:03;;;;;;;;;;;;;;;13.76;46.03;100670.53;5093316;27;19917;-88
2023/12/29 02:43:30;;;;;;;;;;;;;;;13.81;45.99;100672.41;5064012;28;19931;-87
2023/12/29 02:45:56;;;;;;;;;;;;;;;13.87;45.78;100677.53;5059492;28;19990;-89
2023/12/29 02:48:21;;;;;;;;;;;;;;;13.84;45.61;100671.88;5062801;28;20372;-88
2023/12/29 02:50:46;;;;;;;;;;;;;;;13.86;45.68;100664.34;5057796;28;19920;-87
2023/12/29 02:53:11;;;;;;;;;;;;;;;13.89;45.67;100653.03;5058475;28;19944;-89
2023/12/29 02:55:37;;;;;;;;;;;;;;;13.85;45.56;100654.66;5060437;28;19932;-88
2023/12/29 02:58:02;;;;;;;;;;;;;;;13.86;45.66;100658.97;5065632;28;20409;-90
2023/12/29 03:00:28;;;;;;;;;;;;;;;13.84;45.79;100647.66;5066209;28;20301;-88
2023/12/29 03:02:53;;;;;;;;;;;;;;;13.88;45.70;100648.72;5057548;28;19947;-87
2023/12/29 03:05:18;;;;;;;;;;;;;;;13.94;45.44;100644.13;5059479;28;20090;-90
2023/12/29 03:07:43;;;;;;;;;;;;;;;13.99;45.26;100644.91;5056798;28;19917;-88
2023/12/29 03:10:09;;;;;;;;;;;;;;;13.96;45.24;100648.16;5058176;28;19924;-87
2023/12/29 03:12:34;;;;;;;;;;;;;;;13.98;45.16;100645.97;5058467;28;20332;-86
2023/12/29 03:14:59;;;;;;;;;;;;;;;13.98;45.07;100637.09;5057649;28;19925;-86
2023/12/29 03:17:25;;;;;;;;;;;;;;;13.99;45.06;100644.91;5058830;28;19974;-88
2023/12/29 03:19:50;;;;;;;;;;;;;;;14.02;45.18;100644.38;5053450;28;19924;-87
2023/12/29 03:22:15;;;;;;;;;;;;;;;14.03;45.26;100640.59;5056116;28;20460;-86
2023/12/29 03:24:42;;;;;;;;;;;;;;;14.09;45.13;100622.53;5056584;28;20581;-87
2023/12/29 03:27:07;;;;;;;;;;;;;;;14.14;44.97;100634.09;5057748;28;20632;-88
2023/12/29 03:29:33;;;;;;;;;;;;;;;14.13;44.93;100629.78;5058834;28;19916;-88
2023/12/29 03:31:58;;;;;;;;;;;;;;;14.08;45.05;100629.81;5059076;28;19935;-88
2023/12/29 03:34:23;;;;;;;;;;;;;;;14.08;45.23;100616.34;5061646;28;19924;-91
2023/12/29 03:36:49;;;;;;;;;;;;;;;14.06;45.05;100618.50;5066151;28;20413;-88
2023/12/29 03:39:14;;;;;;;;;;;;;;;14.08;44.78;100618.22;5064059;28;19927;-87
2023/12/29 03:41:39;;;;;;;;;;;;;;;14.04;45.05;100599.13;5061868;28;19931;-89
2023/12/29 03:44:06;;;;;;;;;;;;;;;14.06;44.94;100605.03;5060847;28;20427;-90
2023/12/29 03:46:31;;;;;;;;;;;;;;;14.09;44.91;100623.34;5059679;28;19923;-90
2023/12/29 03:48:57;;;;;;;;;;;;;;;14.08;44.76;100589.41;5059182;28;20293;-89
2023/12/29 03:51:22;;;;;;;;;;;;;;;14.06;44.93;100596.94;5058316;28;19925;-88
2023/12/29 03:53:47;;;;;;;;;;;;;;;14.05;44.87;100603.41;5060023;28;20531;-88
2023/12/29 03:56:15;;;;;;;;;;;;;;;14.05;44.84;100594.53;5056114;28;19917;-90
2023/12/29 03:58:40;;;;;;;;;;;;;;;14.08;44.83;100593.97;5058048;28;20301;-88
2023/12/29 04:01:12;;;;;;;;;;;;;;;14.10;44.89;100581.84;5057689;28;19923;-90
2023/12/29 04:03:37;;;;;;;;;;;;;;;14.04;44.94;100576.75;5060321;28;19917;-89
2023/12/29 04:06:03;;;;;;;;;;;;;;;14.13;44.77;100581.28;5063561;28;19925;-89
2023/12/29 04:08:28;;;;;;;;;;;;;;;14.12;44.79;100582.38;5058215;28;20522;-88
2023/12/29 04:10:54;;;;;;;;;;;;;;;14.10;44.85;100562.97;5060242;28;19928;-91
2023/12/29 04:13:19;;;;;;;;;;;;;;;14.11;44.85;100563.78;5058865;28;19927;-86
2023/12/29 04:15:44;;;;;;;;;;;;;;;14.17;44.64;100544.63;5055696;28;19931;-85
2023/12/29 04:18:09;;;;;;;;;;;;;;;14.18;44.70;100540.03;5054096;28;19932;-89
2023/12/29 04:20:35;;;;;;;;;;;;;;;14.09;44.73;100523.66;5058527;28;19924;-90
2023/12/29 04:23:00;;;;;;;;;;;;;;;14.07;44.61;100536.59;5056716;28;19924;-87
2023/12/29 04:25:25;;;;;;;;;;;;;;;14.03;44.86;100538.25;5055886;28;20007;-87
2023/12/29 04:27:50;;;;;;;;;;;;;;;14.03;44.72;100537.44;5052675;28;19935;-85
2023/12/29 04:30:16;;;;;;;;;;;;;;;14.04;44.74;100539.03;5051308;28;21305;-86
2023/12/29 04:32:41;;;;;;;;;;;;;;;14.13;44.71;100540.88;5055619;28;19916;-89
2023/12/29 04:35:07;;;;;;;;;;;;;;;14.09;44.60;100537.13;5056165;28;19978;-90
2023/12/29 04:37:32;;;;;;;;;;;;;;;14.11;44.65;100531.47;5057713;28;19921;-86
2023/12/29 04:39:57;;;;;;;;;;;;;;;14.09;44.67;100520.16;5054295;28;19916;-89
2023/12/29 04:42:23;;;;;;;;;;;;;;;14.13;44.45;100519.31;5057388;28;19924;-88
2023/12/29 04:44:48;;;;;;;;;;;;;;;14.01;44.76;100521.56;5061105;28;19917;-89
2023/12/29 04:47:13;;;;;;;;;;;;;;;14.00;44.58;100519.91;5059167;28;19925;-89
2023/12/29 04:49:38;;;;;;;;;;;;;;;14.00;44.84;100519.91;5054526;28;19924;-87
2023/12/29 04:52:04;;;;;;;;;;;;;;;13.99;44.89;100529.06;5055061;28;20285;-88
2023/12/29 04:54:29;;;;;;;;;;;;;;;14.08;44.69;100522.03;5064844;28;19925;-88
2023/12/29 04:56:54;;;;;;;;;;;;;;;14.11;44.63;100523.38;5061702;28;19924;-87
2023/12/29 04:59:20;;;;;;;;;;;;;;;14.14;44.62;100523.63;5055346;28;19952;-86
2023/12/29 05:01:45;;;;;;;;;;;;;;;14.15;44.60;100519.84;5059335;28;20059;-88
2023/12/29 05:04:10;;;;;;;;;;;;;;;14.16;44.71;100516.06;5053695;28;20010;-87
2023/12/29 05:06:36;;;;;;;;;;;;;;;14.15;44.56;100509.06;5053351;28;20304;-87
2023/12/29 05:09:01;;;;;;;;;;;;;;;14.13;44.73;100519.31;5057903;28;19945;-88
2023/12/29 05:11:26;;;;;;;;;;;;;;;14.12;44.80;100519.59;5057119;28;20399;-89
2023/12/29 05:13:51;;;;;;;;;;;;;;;14.12;44.74;100525.78;5058965;28;19916;-88
2023/12/29 05:16:17;;;;;;;;;;;;;;;14.15;44.91;100519.84;5086501;28;20516;-88
2023/12/29 05:18:42;;;;;;;;;;;;;;;14.25;44.68;100526.28;5056614;28;19963;-85
2023/12/29 05:21:14;;;;;;;;;;;;;;;14.29;44.52;100514.66;5050272;28;19920;-85
2023/12/29 05:23:39;;;;;;;;;;;;;;;14.32;44.33;100497.13;5053847;28;20860;-87
2023/12/29 05:26:04;;;;;;;;;;;;;;;14.36;44.49;100495.47;5054706;28;19917;-88
2023/12/29 05:28:30;;;;;;;;;;;;;;;14.31;44.69;100496.31;5053163;28;19917;-87
2023/12/29 05:30:55;;;;;;;;;;;;;;;14.38;44.54;100498.72;5053268;28;19925;-90
2023/12/29 05:33:20;;;;;;;;;;;;;;;14.38;44.49;100496.84;5058073;28;19921;-89
2023/12/29 05:35:46;;;;;;;;;;;;;;;14.37;44.48;100507.91;5057253;28;19959;-89
2023/12/29 05:38:11;;;;;;;;;;;;;;;14.36;44.56;100503.56;5056646;28;19925;-85
2023/12/29 05:40:36;;;;;;;;;;;;;;;14.28;44.54;100507.66;5054859;28;19913;-88
2023/12/29 05:43:02;;;;;;;;;;;;;;;14.30;44.67;100505.50;5062126;28;19964;-91
2023/12/29 05:45:27;;;;;;;;;;;;;;;14.34;44.49;100509.22;5061551;28;19925;-84
2023/12/29 05:47:52;;;;;;;;;;;;;;;14.35;44.48;100497.38;5059653;28;20015;-91
2023/12/29 05:50:17;;;;;;;;;;;;;;;14.34;44.50;100489.56;5059626;28;19924;-89
2023/12/29 05:52:43;;;;;;;;;;;;;;;14.33;44.63;100491.44;5059718;28;19924;-90
2023/12/29 05:55:08;;;;;;;;;;;;;;;14.29;44.55;100479.63;5065031;28;19920;-89
2023/12/29 05:57:33;;;;;;;;;;;;;;;14.28;44.67;100486.09;5061360;28;20261;-87
2023/12/29 05:59:58;;;;;;;;;;;;;;;14.32;44.56;100481.75;5061821;28;19917;-91
2023/12/29 06:02:24;;;;;;;;;;;;;;;14.30;44.67;100475.03;5061035;28;19912;-86
2023/12/29 06:04:49;;;;;;;;;;;;;;;14.23;44.75;100494.22;5058252;28;19923;-87
2023/12/29 06:07:14;;;;;;;;;;;;;;;14.26;44.74;100487.47;5060919;28;20848;-88
2023/12/29 06:09:40;;;;;;;;;;;;;;;14.24;44.91;100495.03;5058783;28;19925;-87
2023/12/29 06:12:05;;;;;;;;;;;;;;;14.26;44.69;100499.06;5059868;28;19927;-87
2023/12/29 06:14:30;;;;;;;;;;;;;;;14.25;44.67;100492.06;5061413;28;19925;-89
2023/12/29 06:16:55;;;;;;;;;;;;;;;14.25;44.86;100485.84;5058432;28;19923;-88
2023/12/29 06:19:21;;;;;;;;;;;;;;;14.11;45.00;100482.97;5058710;28;20631;-85
2023/12/29 06:21:47;;;;;;;;;;;;;;;14.12;45.04;100488.06;5057158;28;19916;-87
2023/12/29 06:24:12;;;;;;;;;;;;;;;14.13;45.22;100481.59;5060764;28;19994;-86
2023/12/29 06:26:42;;;;;;;;;;;;;;;14.17;44.95;100473.75;5058018;28;19921;-91
2023/12/29 06:29:08;;;;;;;;;;;;;;;14.27;44.96;100467.53;5062043;28;19924;-86
2023/12/29 06:31:33;;;;;;;;;;;;;;;14.24;45.03;100471.59;5058040;28;19934;-88
2023/12/29 06:34:00;;;;;;;;;;;;;;;14.17;44.80;100490.72;5055248;28;19924;-87
2023/12/29 06:36:25;;;;;;;;;;;;;;;14.18;44.92;100462.72;5057166;28;19924;-89
2023/12/29 06:38:52;;;;;;;;;;;;;;;14.11;45.15;100477.56;5060644;28;19977;-90
2023/12/29 06:41:18;;;;;;;;;;;;;;;14.15;45.02;100460.56;5052904;28;20427;-89
2023/12/29 06:43:44;;;;;;;;;;;;;;;14.14;45.10;100480.50;5058868;28;19931;-88
2023/12/29 06:46:09;;;;;;;;;;;;;;;14.19;45.23;100471.63;5057855;28;19924;-87
2023/12/29 06:48:35;;;;;;;;;;;;;;;14.22;45.12;100460.28;5063449;28;19917;-90
2023/12/29 06:51:01;;;;;;;;;;;;;;;14.26;45.01;100461.31;5058897;28;20546;-87
2023/12/29 06:53:26;;;;;;;;;;;;;;;14.21;45.16;100475.66;5057767;28;19975;-88
2023/12/29 06:55:51;;;;;;;;;;;;;;;14.31;45.04;100476.66;5057485;28;19928;-86
2023/12/29 06:58:17;;;;;;;;;;;;;;;14.36;44.99;100476.59;5056583;28;20300;-88
2023/12/29 07:00:42;;;;;;;;;;;;;;;14.38;44.95;100475.28;5056263;28;19958;-87
2023/12/29 07:03:07;;;;;;;;;;;;;;;14.46;44.90;100487.38;5063134;28;19917;-90
2023/12/29 07:05:32;;;;;;;;;;;;;;;14.55;44.89;100474.13;5058252;28;19924;-87
2023/12/29 07:07:58;;;;;;;;;;;;;;;14.55;44.84;100456.03;5064202;28;19966;-89
2023/12/29 07:10:23;;;;;;;;;;;;;;;14.68;44.56;100452.69;5062389;28;20012;-89
2023/12/29 07:12:49;;;;;;;;;;;;;;;14.72;44.60;100451.06;5066230;28;20694;-91
2023/12/29 07:15:14;;;;;;;;;;;;;;;14.71;44.80;100465.59;5061067;28;19924;-89
2023/12/29 07:17:39;;;;;;;;;;;;;;;14.80;44.55;100442.34;5063189;28;20016;-89
2023/12/29 07:20:06;;;;;;;;;;;;;;;14.73;44.75;100465.34;5062303;28;20379;-89
2023/12/29 07:22:32;;;;;;;;;;;;;;;14.74;44.82;100478.53;5062593;28;19920;-91
2023/12/29 07:24:58;;;;;;;;;;;;;;;14.76;44.63;100476.38;5067200;28;19932;-89
2023/12/29 07:27:23;;;;;;;;;;;;;;;14.76;44.77;100476.38;5063491;28;19916;-90
2023/12/29 07:29:48;;;;;;;;;;;;;;;14.81;44.75;100487.09;5068290;28;19916;-89
2023/12/29 07:32:14;;;;;;;;;;;;;;;14.87;44.56;100489.75;5058821;28;20446;-90
2023/12/29 07:34:39;;;;;;;;;;;;;;;14.80;44.44;100484.69;5063280;28;19931;-90
2023/12/29 07:37:04;;;;;;;;;;;;;;;14.77;44.48;100501.44;5064374;28;19936;-87
2023/12/29 07:39:29;;;;;;;;;;;;;;;14.78;44.55;100482.28;5059769;28;19921;-90
2023/12/29 07:41:55;;;;;;;;;;;;;;;14.76;44.29;100475.56;5057663;28;19931;-87
2023/12/29 07:44:20;;;;;;;;;;;;;;;14.86;44.23;100485.44;5059288;28;19921;-90
2023/12/29 07:46:46;;;;;;;;;;;;;;;14.92;44.25;100495.13;5061715;28;19927;-89
2023/12/29 07:49:11;;;;;;;;;;;;;;;14.95;44.23;100508.03;5059942;28;19930;-89
2023/12/29 07:51:43;;;;;;;;;;;;;;;14.98;44.13;100502.06;5060565;28;20269;-89
2023/12/29 07:54:08;;;;;;;;;;;;;;;15.02;43.87;100500.41;5059810;28;19936;-88
2023/12/29 07:56:34;;;;;;;;;;;;;;;15.00;43.97;100529.56;5060566;28;20980;-91
2023/12/29 07:58:59;;;;;;;;;;;;;;;15.03;44.08;100502.03;5066022;28;20013;-90
2023/12/29 08:01:25;;;;;;;;;;;;;;;15.01;43.92;100498.81;5058376;28;19917;-89
2023/12/29 08:03:51;;;;;;;;;;;;;;;15.01;43.80;100488.81;5055820;28;19924;-89
2023/12/29 08:06:16;;;;;;;;;;;;;;;15.06;43.97;100501.47;5059278;28;19940;-91
2023/12/29 08:08:41;;;;;;;;;;;;;;;15.07;43.99;100498.47;5057940;28;20680;-90
2023/12/29 08:11:13;;;;;;;;;;;;;;;15.15;44.01;100488.97;5060625;28;19928;-87
2023/12/29 08:13:39;;;;;;;;;;;;;;;15.27;43.69;100486.69;5062990;28;19917;-91
2023/12/29 08:16:05;;;;;;;;;;;;;;;15.29;43.47;100479.13;5063241;28;19920;-88
2023/12/29 08:18:30;;;;;;;;;;;;;;;15.27;43.46;100497.50;5059766;28;19920;-90
2023/12/29 08:20:56;;;;;;;;;;;;;;;15.27;43.51;100502.09;5059840;28;20015;-89
2023/12/29 08:23:21;;;;;;;;;;;;;;;15.25;43.72;100515.03;5058309;28;19924;-89
2023/12/29 08:25:46;;;;;;;;;;;;;;;15.31;43.37;100501.22;5063301;28;19918;-91
2023/12/29 08:28:12;;;;;;;;;;;;;;;15.31;43.50;100517.44;5059744;28;19932;-86
2023/12/29 08:30:38;;;;;;;;;;;;;;;15.31;43.72;100520.13;5058645;28;19927;-90
2023/12/29 08:33:05;;;;;;;;;;;;;;;15.36;43.76;100511.97;5060070;28;20197;-89
2023/12/29 08:35:31;;;;;;;;;;;;;;;15.38;43.70;100520.59;5059006;28;19960;-90
2023/12/29 08:37:56;;;;;;;;;;;;;;;15.40;43.65;100513.00;5065330;28;20003;-91
2023/12/29 08:40:21;;;;;;;;;;;;;;;15.46;43.55;100512.97;5060713;28;19924;-90
2023/12/29 08:42:47;;;;;;;;;;;;;;;15.46;43.62;100521.06;5064554;28;19970;-92
2023/12/29 08:45:12;;;;;;;;;;;;;;;15.48;43.42;100495.38;5063409;28;20004;-90
2023/12/29 08:47:37;;;;;;;;;;;;;;;15.48;43.30;100508.88;5058978;28;19971;-89
2023/12/29 08:50:04;;;;;;;;;;;;;;;15.54;43.28;100517.72;5064995;28;20144;-89
2023/12/29 08:52:29;;;;;;;;;;;;;;;15.55;43.42;100525.53;5060682;28;19931;-90
2023/12/29 08:54:54;;;;;;;;;;;;;;;15.59;43.34;100523.91;5060800;28;19943;-89
2023/12/29 08:57:19;;;;;;;;;;;;;;;15.61;43.28;100537.91;5054570;28;20191;-89
2023/12/29 08:59:45;;;;;;;;;;;;;;;15.62;43.06;100519.84;5057444;28;19917;-89
2023/12/29 09:02:10;;;;;;;;;;;;;;;15.64;43.15;100539.28;5063920;28;19924;-89
2023/12/29 09:04:35;;;;;;;;;;;;;;;15.67;43.21;100542.19;5063732;28;20490;-87
2023/12/29 09:07:00;;;;;;;;;;;;;;;15.67;43.50;100533.28;5057855;28;19921;-88
2023/12/29 09:09:26;;;;;;;;;;;;;;;15.72;43.53;100538.63;5058404;28;20003;-92
2023/12/29 09:11:51;;;;;;;;;;;;;;;15.76;43.82;100547.75;5059482;28;19924;-88
2023/12/29 09:14:17;;;;;;;;;;;;;;;15.72;44.11;100535.94;5057866;28;19917;-90
2023/12/29 09:16:42;;;;;;;;;;;;;;;15.69;44.22;100541.91;5063372;28;19924;-91
2023/12/29 09:19:08;;;;;;;;;;;;;;;15.73;44.00;100550.25;5062216;28;19918;-91
2023/12/29 09:21:33;;;;;;;;;;;;;;;15.74;44.01;100555.34;5065818;28;19925;-87
2023/12/29 09:23:58;;;;;;;;;;;;;;;15.79;44.02;100563.38;5060902;28;19924;-89
2023/12/29 09:26:23;;;;;;;;;;;;;;;15.77;44.11;100568.28;5058960;28;19929;-88
2023/12/29 09:28:49;;;;;;;;;;;;;;;15.73;44.04;100566.44;5063061;28;19981;-89
2023/12/29 09:31:14;;;;;;;;;;;;;;;15.73;44.45;100564.53;5058539;28;21245;-88
2023/12/29 09:33:39;;;;;;;;;;;;;;;15.66;44.78;100566.78;5062361;28;20020;-89
2023/12/29 09:36:05;;;;;;;;;;;;;;;15.60;45.06;100555.22;5061144;28;19924;-89
2023/12/29 09:38:30;;;;;;;;;;;;;;;15.60;45.24;100543.63;5062006;28;19948;-89
2023/12/29 09:40:59;;;;;;;;;;;;;;;15.64;45.24;100553.56;5057727;28;20031;-87
2023/12/29 09:43:25;;;;;;;;;;;;;;;15.68;45.28;100545.69;5059474;28;19939;-89
2023/12/29 09:45:51;;;;;;;;;;;;;;;15.72;44.92;100552.13;5060955;28;19924;-88
2023/12/29 09:48:19;;;;;;;;;;;;;;;15.76;44.89;100547.75;5059479;28;19980;-88
2023/12/29 09:50:45;;;;;;;;;;;;;;;15.75;44.98;100532.66;5060867;28;19928;-89
2023/12/29 09:53:12;;;;;;;;;;;;;;;15.76;45.01;100536.16;5061409;28;19932;-88
2023/12/29 09:55:38;;;;;;;;;;;;;;;15.77;44.87;100533.16;5058832;28;19928;-87
2023/12/29 09:58:04;;;;;;;;;;;;;;;15.84;44.69;100533.63;5059186;28;19928;-88
2023/12/29 10:00:30;;;;;;;;;;;;;;;15.91;44.64;100536.78;5064729;28;19925;-87
2023/12/29 10:02:56;;;;;;;;;;;;;;;15.93;44.56;100521.09;5061220;28;19920;-90
2023/12/29 10:05:21;;;;;;;;;;;;;;;16.01;44.29;100525.06;5066102;28;19920;-91
2023/12/29 10:07:47;;;;;;;;;;;;;;;16.09;43.99;100542.53;5063429;28;19963;-92
2023/12/29 10:10:15;;;;;;;;;;;;;;;16.10;44.05;100519.81;5057488;28;20015;-91
2023/12/29 10:12:41;;;;;;;;;;;;;;;16.11;43.71;100551.13;5059325;28;19920;-87
2023/12/29 10:15:12;;;;;;;;;;;;;;;16.13;43.54;100522.72;5061647;28;19932;-86
2023/12/29 10:17:40;;;;;;;;;;;;;;;16.15;43.72;100508.91;5054925;28;19924;-85
2023/12/29 10:20:15;;;;;;;;;;;;;;;16.23;43.37;100519.91;5060067;28;19917;-87
2023/12/29 10:22:52;;;;;;;;;;;;;;;16.25;43.27;100523.13;5059931;28;19947;-90
2023/12/29 10:25:18;;;;;;;;;;;;;;;16.29;42.98;100521.44;5066277;28;19920;-93
2023/12/29 10:27:43;;;;;;;;;;;;;;;16.35;43.00;100511.38;5059144;28;19920;-87
2023/12/29 10:30:09;;;;;;;;;;;;;;;16.43;42.94;100523.41;5057860;28;19928;-90
2023/12/29 10:32:35;;;;;;;;;;;;;;;16.56;42.84;100523.50;5060031;28;19971;-89
2023/12/29 10:35:10;;;;;;;;;;;;;;;16.61;42.70;100515.28;5059958;28;19960;-89
2023/12/29 10:37:36;;;;;;;;;;;;;;;16.71;42.58;100513.56;5057359;28;19987;-86
2023/12/29 10:40:01;;;;;;;;;;;;;;;16.83;42.36;100505.78;5056467;28;20388;-88
2023/12/29 10:42:28;;;;;;;;;;;;;;;16.92;42.09;100498.63;5057688;28;19968;-88
2023/12/29 10:45:09;;;;;;;;;;;;;;;16.94;41.82;100517.25;5055864;28;19920;-88
2023/12/29 10:47:35;;;;;;;;;;;;;;;16.88;41.95;100513.84;5056557;28;19932;-87
2023/12/29 10:50:01;;;;;;;;;;;;;;;16.86;42.03;100522.22;5055226;28;19920;-87
2023/12/29 10:52:27;;;;;;;;;;;;;;;16.84;42.06;100523.63;5055602;28;20381;-88
2023/12/29 10:55:03;;;;;;;;;;;;;;;16.87;42.24;100533.84;5054878;28;19974;-88
2023/12/29 10:57:29;;;;;;;;;;;;;;;16.95;41.94;100516.97;5090006;27;19935;-92
2023/12/29 10:59:55;;;;;;;;;;;;;;;17.01;41.84;100513.06;5053047;28;19926;-86
2023/12/29 11:02:20;;;;;;;;;;;;;;;17.09;41.35;100517.81;5055282;28;20015;-92
2023/12/29 11:04:46;;;;;;;;;;;;;;;17.11;41.39;100506.69;5058714;28;20070;-89
2023/12/29 11:07:14;;;;;;;;;;;;;;;17.14;41.61;100517.72;5062967;28;19916;-90
2023/12/29 11:09:41;;;;;;;;;;;;;;;17.25;40.90;100517.56;5055401;28;19932;-91
2023/12/29 11:12:06;;;;;;;;;;;;;;;17.33;40.81;100525.78;5057071;28;19963;-94
2023/12/29 11:14:32;;;;;;;;;;;;;;;17.22;40.21;100519.72;5058142;28;19955;-87
2023/12/29 11:17:00;;;;;;;;;;;;;;;17.08;40.84;100524.34;5057874;28;19916;-92
2023/12/29 11:19:25;;;;;;;;;;;;;;;16.96;41.11;100525.88;5058511;28;19952;-88
2023/12/29 11:21:53;;;;;;;;;;;;;;;16.88;41.10;100528.19;5056955;28;20009;-88
2023/12/29 11:24:18;;;;;;;;;;;;;;;16.87;41.28;100528.44;5054493;28;19921;-87
2023/12/29 11:26:44;;;;;;;;;;;;;;;16.83;41.37;100533.66;5057197;28;19928;-89
2023/12/29 11:29:11;;;;;;;;;;;;;;;16.79;41.20;100531.84;5052467;28;19924;-85
2023/12/29 11:31:37;;;;;;;;;;;;;;;16.72;41.53;100542.25;5052382;28;19932;-87
2023/12/29 11:34:09;;;;;;;;;;;;;;;16.74;41.56;100545.44;5055209;28;19927;-89
2023/12/29 11:36:38;;;;;;;;;;;;;;;16.64;41.89;100554.47;5051700;28;21181;-86
2023/12/29 11:39:15;;;;;;;;;;;;;;;16.65;41.95;100537.16;5054711;28;19920;-89
2023/12/29 11:41:59;;;;;;;;;;;;;;;16.68;42.13;100531.19;5055168;28;19932;-87
2023/12/29 11:44:26;;;;;;;;;;;;;;;16.60;42.14;100546.16;5051570;28;19932;-89
2023/12/29 11:46:52;;;;;;;;;;;;;;;16.53;42.63;100543.00;5053832;28;19931;-87
2023/12/29 11:49:17;;;;;;;;;;;;;;;16.50;42.77;100546.28;5050659;28;20336;-85
2023/12/29 11:51:48;;;;;;;;;;;;;;;16.58;42.80;100525.91;5057631;28;19978;-92
2023/12/29 11:54:21;;;;;;;;;;;;;;;16.48;42.97;100532.25;5057864;28;19935;-88
2023/12/29 11:56:46;;;;;;;;;;;;;;;16.45;43.08;100526.63;5058175;28;19967;-87
2023/12/29 11:59:15;;;;;;;;;;;;;;;16.43;43.25;100531.53;5056284;28;19916;-86
2023/12/29 12:01:41;;;;;;;;;;;;;;;16.42;43.33;100519.09;5058598;28;19932;-89
2023/12/29 12:04:25;;;;;;;;;;;;;;;16.36;43.50;100518.38;5055365;28;19921;-89
2023/12/29 12:06:50;;;;;;;;;;;;;;;16.34;43.49;100509.75;5058005;28;19931;-88
2023/12/29 12:09:18;;;;;;;;;;;;;;;16.32;43.62;100504.63;5058397;28;19921;-88
2023/12/29 12:11:43;;;;;;;;;;;;;;;16.42;43.41;100494.78;5059409;28;19921;-87
2023/12/29 12:14:08;;;;;;;;;;;;;;;16.42;43.46;100484.75;5072041;28;19991;-92
2023/12/29 12:16:46;;;;;;;;;;;;;;;16.46;43.39;100491.19;5069376;28;20011;-90
2023/12/29 12:19:12;;;;;;;;;;;;;;;16.44;43.54;100487.97;5066585;28;19920;-86
2023/12/29 12:21:40;;;;;;;;;;;;;;;16.45;43.62;100494.19;5057740;28;19917;-87
2023/12/29 12:24:05;;;;;;;;;;;;;;;16.48;43.37;100497.09;5069494;28;19943;-88
2023/12/29 12:26:31;;;;;;;;;;;;;;;16.52;43.22;100500.03;5064342;28;20372;-90
2023/12/29 12:29:00;;;;;;;;;;;;;;;16.49;43.13;100492.50;5062755;28;19925;-89
2023/12/29 12:31:26;;;;;;;;;;;;;;;16.42;43.39;100490.16;5058944;28;19929;-87